createdAt,value
2023-03-18T00:01:16.130Z,8.77
2023-03-18T00:03:45.783Z,8.45
2023-03-18T00:06:18.437Z,9.80
2023-03-18T00:08:48.349Z,9.00
2023-03-18T00:11:19.218Z,8.50
2023-03-18T00:13:48.002Z,8.57
2023-03-18T00:16:16.928Z,8.05
2023-03-18T00:18:45.456Z,8.27
2023-03-18T00:21:16.840Z,8.88
2023-03-18T00:23:44.977Z,9.27
2023-03-18T00:26:13.030Z,7.47
2023-03-18T00:28:41.307Z,8.20
2023-03-18T00:31:11.729Z,8.48
2023-03-18T00:33:43.562Z,8.13
2023-03-18T00:36:13.768Z,7.53
2023-03-18T00:38:45.903Z,7.97
2023-03-18T00:41:16.013Z,8.45
2023-03-18T00:43:52.505Z,9.30
2023-03-18T00:46:24.694Z,9.20
2023-03-18T00:48:54.417Z,9.10
2023-03-18T00:51:24.469Z,8.90
2023-03-18T00:53:57.278Z,8.55
2023-03-18T00:56:27.746Z,8.57
2023-03-18T00:58:57.305Z,8.88
2023-03-18T01:01:26.740Z,8.38
2023-03-18T01:03:55.367Z,8.60
2023-03-18T01:06:26.566Z,8.55
2023-03-18T01:08:57.174Z,9.07
2023-03-18T01:11:26.570Z,8.75
2023-03-18T01:13:55.742Z,8.80
2023-03-18T01:16:24.234Z,9.15
2023-03-18T01:18:53.804Z,10.63
2023-03-18T01:21:22.702Z,8.23
2023-03-18T01:23:50.848Z,8.82
2023-03-18T01:26:20.478Z,9.57
2023-03-18T01:28:48.551Z,9.23
2023-03-18T01:31:16.842Z,8.98
2023-03-18T01:33:45.053Z,10.23
2023-03-18T01:36:13.232Z,9.63
2023-03-18T01:38:42.873Z,9.27
2023-03-18T01:41:12.161Z,9.50
2023-03-18T01:43:44.164Z,9.43
2023-03-18T01:46:40.310Z,10.02
2023-03-18T01:49:12.590Z,9.05
2023-03-18T01:51:42.811Z,9.10
2023-03-18T01:54:14.085Z,9.27
2023-03-18T01:56:44.518Z,12.00
2023-03-18T01:59:15.532Z,10.80
2023-03-18T02:01:48.803Z,8.85
2023-03-18T02:04:18.866Z,11.55
2023-03-18T02:06:46.950Z,11.02
2023-03-18T02:09:15.122Z,10.18
2023-03-18T02:11:46.832Z,10.73
2023-03-18T02:14:17.159Z,10.20
2023-03-18T02:16:51.953Z,10.57
2023-03-18T02:19:31.497Z,10.13
2023-03-18T02:22:09.739Z,10.63
2023-03-18T02:24:46.812Z,9.32
2023-03-18T02:27:19.218Z,10.75
2023-03-18T02:29:48.858Z,10.93
2023-03-18T02:32:20.257Z,10.68
2023-03-18T02:34:49.195Z,9.68
2023-03-18T02:37:17.288Z,10.05
2023-03-18T02:39:45.545Z,9.25
2023-03-18T02:42:14.888Z,10.95
2023-03-18T02:44:48.370Z,10.68
2023-03-18T02:47:22.400Z,11.30
2023-03-18T02:49:51.661Z,10.77
2023-03-18T02:52:19.847Z,9.70
2023-03-18T02:54:47.969Z,9.52
2023-03-18T02:57:15.983Z,10.10
2023-03-18T02:59:47.965Z,11.00
2023-03-18T03:02:16.710Z,10.63
2023-03-18T03:04:44.825Z,10.32
2023-03-18T03:07:13.477Z,11.55
2023-03-18T03:09:41.921Z,11.80
2023-03-18T03:12:10.276Z,9.90
2023-03-18T03:14:38.353Z,11.25
2023-03-18T03:17:07.979Z,10.70
2023-03-18T03:19:36.054Z,10.73
2023-03-18T03:22:04.221Z,9.10
2023-03-18T03:24:32.437Z,9.55
2023-03-18T03:27:00.571Z,9.43
2023-03-18T03:29:29.351Z,9.25
2023-03-18T03:31:57.512Z,11.30
2023-03-18T03:34:27.156Z,9.15
2023-03-18T03:36:55.244Z,10.07
2023-03-18T03:39:23.705Z,11.38
2023-03-18T03:41:52.914Z,9.65
2023-03-18T03:44:21.432Z,9.43
2023-03-18T03:46:49.581Z,10.82
2023-03-18T03:49:18.636Z,10.90
2023-03-18T03:51:48.234Z,10.88
2023-03-18T03:54:16.799Z,10.85
2023-03-18T03:56:44.885Z,9.32
2023-03-18T03:59:12.949Z,10.70
2023-03-18T04:01:41.300Z,10.18
2023-03-18T04:04:09.426Z,9.80
2023-03-18T04:06:37.668Z,10.50
2023-03-18T04:09:07.111Z,10.15
2023-03-18T04:11:35.101Z,11.10
2023-03-18T04:14:03.201Z,10.00
2023-03-18T04:16:31.356Z,10.10
2023-03-18T04:18:59.477Z,10.32
2023-03-18T04:21:27.522Z,10.25
2023-03-18T04:23:56.602Z,10.43
2023-03-18T04:26:26.077Z,11.20
2023-03-18T04:28:54.165Z,9.38
2023-03-18T04:31:22.749Z,9.57
2023-03-18T04:33:50.874Z,10.73
2023-03-18T04:36:18.979Z,9.77
2023-03-18T04:38:47.060Z,11.90
2023-03-18T04:41:15.485Z,9.60
2023-03-18T04:43:45.725Z,8.82
2023-03-18T04:46:13.861Z,9.77
2023-03-18T04:48:42.148Z,8.77
2023-03-18T04:51:10.335Z,9.20
2023-03-18T04:53:38.526Z,10.45
2023-03-18T04:56:08.848Z,10.70
2023-03-18T04:58:37.937Z,9.93
2023-03-18T05:01:07.450Z,10.68
2023-03-18T05:03:35.959Z,9.25
2023-03-18T05:06:04.118Z,10.25
2023-03-18T05:08:32.195Z,8.88
2023-03-18T05:11:00.277Z,10.60
2023-03-18T05:13:29.280Z,10.25
2023-03-18T05:15:57.373Z,10.43
2023-03-18T05:18:26.961Z,10.60
2023-03-18T05:20:54.988Z,10.45
2023-03-18T05:23:24.056Z,11.00
2023-03-18T05:25:52.324Z,9.25
2023-03-18T05:28:21.453Z,10.55
2023-03-18T05:30:49.755Z,9.48
2023-03-18T05:33:20.898Z,10.02
2023-03-18T05:35:51.828Z,9.23
2023-03-18T05:38:20.616Z,9.35
2023-03-18T05:40:49.119Z,9.77
2023-03-18T05:43:18.829Z,9.13
2023-03-18T05:45:46.951Z,9.55
2023-03-18T05:48:15.405Z,8.70
2023-03-18T05:50:44.292Z,8.82
2023-03-18T05:53:16.278Z,9.05
2023-03-18T05:55:45.110Z,10.35
2023-03-18T05:58:13.156Z,11.10
2023-03-18T06:00:41.631Z,9.15
2023-03-18T06:03:10.325Z,8.45
2023-03-18T06:05:38.548Z,9.38
2023-03-18T06:08:07.267Z,10.60
2023-03-18T06:10:38.907Z,9.27
2023-03-18T06:13:07.797Z,9.48
2023-03-18T06:15:35.920Z,9.63
2023-03-18T06:18:04.815Z,8.73
2023-03-18T06:20:33.665Z,8.15
2023-03-18T06:23:01.766Z,8.60
2023-03-18T06:25:30.144Z,7.82
2023-03-18T06:28:00.044Z,9.23
2023-03-18T06:30:28.249Z,8.65
2023-03-18T06:32:56.504Z,9.27
2023-03-18T06:35:26.654Z,8.73
2023-03-18T06:37:55.202Z,9.50
2023-03-18T06:40:23.988Z,10.75
2023-03-18T06:42:52.614Z,8.43
2023-03-18T06:45:22.400Z,9.30
2023-03-18T06:47:52.161Z,8.20
2023-03-18T06:50:20.656Z,9.05
2023-03-18T06:52:49.441Z,8.50
2023-03-18T06:55:17.883Z,11.68
2023-03-18T06:57:46.584Z,8.40
2023-03-18T07:00:16.137Z,8.00
2023-03-18T07:02:46.446Z,8.40
2023-03-18T07:05:14.760Z,9.68
2023-03-18T07:07:43.172Z,8.70
2023-03-18T07:10:19.207Z,8.50
2023-03-18T07:12:48.560Z,8.93
2023-03-18T07:15:17.056Z,10.65
2023-03-18T07:17:46.604Z,8.85
2023-03-18T07:20:15.453Z,8.85
2023-03-18T07:22:43.944Z,8.88
2023-03-18T07:25:13.287Z,7.28
2023-03-18T07:27:42.300Z,7.97
2023-03-18T07:30:11.590Z,8.77
2023-03-18T07:32:40.859Z,7.68
2023-03-18T07:35:14.063Z,9.63
2023-03-18T07:37:42.633Z,8.88
2023-03-18T07:40:13.124Z,8.30
2023-03-18T07:42:41.556Z,8.55
2023-03-18T07:45:11.366Z,8.73
2023-03-18T07:47:39.733Z,9.68
2023-03-18T07:50:12.334Z,9.05
2023-03-18T07:52:40.718Z,8.05
2023-03-18T07:55:10.233Z,8.05
2023-03-18T07:57:38.628Z,9.77
2023-03-18T08:00:08.613Z,7.95
2023-03-18T08:02:37.021Z,8.48
2023-03-18T08:05:06.988Z,8.57
2023-03-18T08:07:38.008Z,8.15
2023-03-18T08:10:07.217Z,7.28
2023-03-18T08:12:49.329Z,7.68
2023-03-18T08:15:20.387Z,9.38
2023-03-18T08:17:48.442Z,7.05
2023-03-18T08:20:16.692Z,7.93
2023-03-18T08:22:48.546Z,8.90
2023-03-18T08:25:17.148Z,8.40
2023-03-18T08:27:47.748Z,7.63
2023-03-18T08:30:16.594Z,7.63
2023-03-18T08:32:47.274Z,8.40
2023-03-18T08:35:15.584Z,8.32
2023-03-18T08:37:43.991Z,7.30
2023-03-18T08:40:14.495Z,7.20
2023-03-18T08:42:42.526Z,9.48
2023-03-18T08:45:12.473Z,7.28
2023-03-18T08:47:41.432Z,6.88
2023-03-18T08:50:11.116Z,7.82
2023-03-18T08:52:39.776Z,7.32
2023-03-18T08:55:09.618Z,6.70
2023-03-18T08:57:39.499Z,6.85
2023-03-18T09:00:09.026Z,7.13
2023-03-18T09:02:37.353Z,7.97
2023-03-18T09:05:06.550Z,6.10
2023-03-18T09:07:34.825Z,6.82
2023-03-18T09:10:04.458Z,6.78
2023-03-18T09:12:32.647Z,6.78
2023-03-18T09:15:03.157Z,7.35
2023-03-18T09:17:50.835Z,7.63
2023-03-18T09:20:19.825Z,6.20
2023-03-18T09:22:48.254Z,7.35
2023-03-18T09:25:16.740Z,7.57
2023-03-18T09:27:45.845Z,7.25
2023-03-18T09:30:15.819Z,6.25
2023-03-18T09:32:44.704Z,6.50
2023-03-18T09:35:14.212Z,6.15
2023-03-18T09:37:42.478Z,6.50
2023-03-18T09:40:19.729Z,7.82
2023-03-18T09:42:59.080Z,6.28
2023-03-18T09:45:32.320Z,7.68
2023-03-18T09:48:21.235Z,6.90
2023-03-18T09:51:00.146Z,6.05
2023-03-18T09:53:38.555Z,6.80
2023-03-18T09:56:11.826Z,6.28
2023-03-18T09:58:49.387Z,6.75
2023-03-18T10:01:22.273Z,6.65
2023-03-18T10:03:54.874Z,7.22
2023-03-18T10:06:24.895Z,6.25
2023-03-18T10:09:02.300Z,6.00
2023-03-18T10:11:33.339Z,6.13
2023-03-18T10:14:20.530Z,7.13
2023-03-18T10:17:04.822Z,6.32
2023-03-18T10:19:34.326Z,5.78
2023-03-18T10:22:23.378Z,6.00
2023-03-18T10:25:00.641Z,6.70
2023-03-18T10:27:45.756Z,5.43
2023-03-18T10:30:31.254Z,6.78
2023-03-18T10:33:08.148Z,6.03
2023-03-18T10:35:43.352Z,6.43
2023-03-18T10:38:19.117Z,5.72
2023-03-18T10:40:48.165Z,5.45
2023-03-18T10:43:19.517Z,6.30
2023-03-18T10:45:49.887Z,6.07
2023-03-18T10:48:24.786Z,6.55
2023-03-18T10:51:03.522Z,5.18
2023-03-18T10:53:39.077Z,6.78
2023-03-18T10:56:09.043Z,6.30
2023-03-18T10:58:39.016Z,5.55
2023-03-18T11:01:08.781Z,5.55
2023-03-18T11:03:44.152Z,6.93
2023-03-18T11:06:18.953Z,6.57
2023-03-18T11:08:49.761Z,5.55
2023-03-18T11:11:26.890Z,5.78
2023-03-18T11:13:58.164Z,6.30
2023-03-18T11:16:30.956Z,6.32
2023-03-18T11:19:01.211Z,5.15
2023-03-18T11:21:29.959Z,5.85
2023-03-18T11:24:21.001Z,6.18
2023-03-18T11:26:54.496Z,5.50
2023-03-18T11:29:27.743Z,5.97
2023-03-18T11:31:58.419Z,5.53
2023-03-18T11:34:29.589Z,5.15
2023-03-18T11:37:01.283Z,5.18
2023-03-18T11:39:32.357Z,4.70
2023-03-18T11:42:01.733Z,5.53
2023-03-18T11:44:32.136Z,6.20
2023-03-18T11:47:05.365Z,6.10
2023-03-18T11:49:35.391Z,5.70
2023-03-18T11:52:15.931Z,4.93
2023-03-18T11:55:04.289Z,5.68
2023-03-18T11:57:41.659Z,5.32
2023-03-18T12:00:45.806Z,4.68
2023-03-18T12:04:02.201Z,6.25
2023-03-18T12:06:35.990Z,5.07
2023-03-18T12:09:12.268Z,5.45
2023-03-18T12:11:57.800Z,5.30
2023-03-18T12:14:35.642Z,5.38
2023-03-18T12:17:17.496Z,5.55
2023-03-18T12:20:22.479Z,4.72
2023-03-18T12:23:04.442Z,4.80
2023-03-18T12:25:44.553Z,4.65
2023-03-18T12:28:22.895Z,4.50
2023-03-18T12:31:02.980Z,5.32
2023-03-18T12:33:45.253Z,4.85
2023-03-18T12:36:23.009Z,6.25
2023-03-18T12:39:25.056Z,4.93
2023-03-18T12:42:02.911Z,5.03
2023-03-18T12:44:46.747Z,5.20
2023-03-18T12:47:20.934Z,4.53
2023-03-18T12:49:53.385Z,5.53
2023-03-18T12:52:31.190Z,4.90
2023-03-18T12:55:07.642Z,4.95
2023-03-18T12:57:44.537Z,4.30
2023-03-18T13:00:24.837Z,5.20
2023-03-18T13:03:06.925Z,4.70
2023-03-18T13:05:49.641Z,5.18
2023-03-18T13:08:43.063Z,5.22
2023-03-18T13:11:27.212Z,4.93
2023-03-18T13:14:01.285Z,4.88
2023-03-18T13:16:31.347Z,5.03
2023-03-18T13:19:04.135Z,5.70
2023-03-18T13:21:35.164Z,4.30
2023-03-18T13:24:37.642Z,5.22
2023-03-18T13:27:28.625Z,5.25
2023-03-18T13:30:06.228Z,4.45
2023-03-18T13:32:56.340Z,4.07
2023-03-18T13:35:50.701Z,5.45
2023-03-18T13:38:33.955Z,4.32
2023-03-18T13:41:16.647Z,5.13
2023-03-18T13:43:49.494Z,4.38
2023-03-18T13:46:22.243Z,4.15
2023-03-18T13:48:57.016Z,4.70
2023-03-18T13:51:50.908Z,5.47
2023-03-18T13:54:21.510Z,5.43
2023-03-18T13:56:55.659Z,4.78
2023-03-18T13:59:48.833Z,5.07
2023-03-18T14:02:34.123Z,4.53
2023-03-18T14:05:02.706Z,4.95
2023-03-18T14:07:30.777Z,3.95
2023-03-18T14:10:20.448Z,5.20
2023-03-18T14:12:49.317Z,4.93
2023-03-18T14:15:44.488Z,5.10
2023-03-18T14:18:27.895Z,4.70
2023-03-18T14:23:39.527Z,5.00
2023-03-18T14:26:19.268Z,4.37
2023-03-18T14:28:49.680Z,4.43
2023-03-18T14:31:32.468Z,4.07
2023-03-18T14:34:23.167Z,4.50
2023-03-18T14:37:21.082Z,4.32
2023-03-18T14:39:52.970Z,4.15
2023-03-18T14:42:39.001Z,4.38
2023-03-18T14:45:14.038Z,4.10
2023-03-18T14:47:46.730Z,4.13
2023-03-18T14:50:23.203Z,4.78
2023-03-18T14:52:57.481Z,4.82
2023-03-18T14:55:31.154Z,4.93
2023-03-18T14:57:59.628Z,3.53
2023-03-18T15:00:31.223Z,4.57
2023-03-18T15:03:05.830Z,4.60
2023-03-18T15:05:36.918Z,4.18
2023-03-18T15:08:10.711Z,4.00
2023-03-18T15:10:39.147Z,4.03
2023-03-18T15:13:11.756Z,5.03
2023-03-18T15:15:41.379Z,4.82
2023-03-18T15:18:20.077Z,4.22
2023-03-18T15:20:51.214Z,4.00
2023-03-18T15:23:25.117Z,4.30
2023-03-18T15:25:54.285Z,4.90
2023-03-18T15:28:25.218Z,4.40
2023-03-18T15:30:55.960Z,4.32
2023-03-18T15:33:30.210Z,4.03
2023-03-18T15:36:05.900Z,3.80
2023-03-18T15:38:34.788Z,3.97
2023-03-18T15:41:05.560Z,3.92
2023-03-18T15:43:40.701Z,3.60
2023-03-18T15:46:17.426Z,5.15
2023-03-18T15:48:54.605Z,3.47
2023-03-18T15:51:27.710Z,3.78
2023-03-18T15:53:58.125Z,4.60
2023-03-18T15:56:29.675Z,3.72
2023-03-18T15:59:07.128Z,3.92
2023-03-18T16:01:36.346Z,3.30
2023-03-18T16:04:10.332Z,4.55
2023-03-18T16:09:15.746Z,3.92
2023-03-18T16:11:45.504Z,3.35
2023-03-18T16:14:17.414Z,3.47
2023-03-18T16:16:45.548Z,3.60
2023-03-18T16:19:25.057Z,3.30
2023-03-18T16:21:53.709Z,3.38
2023-03-18T16:24:25.600Z,3.90
2023-03-18T16:26:55.166Z,3.72
2023-03-18T16:29:28.899Z,3.80
2023-03-18T16:31:57.348Z,3.83
2023-03-18T16:34:27.809Z,3.78
2023-03-18T16:36:56.456Z,3.55
2023-03-18T16:39:27.295Z,3.40
2023-03-18T16:41:56.463Z,3.97
2023-03-18T16:44:24.706Z,3.22
2023-03-18T16:46:55.396Z,4.07
2023-03-18T16:49:27.489Z,4.50
2023-03-18T16:51:56.979Z,3.67
2023-03-18T16:54:27.544Z,3.88
2023-03-18T16:56:58.940Z,3.55
2023-03-18T16:59:32.493Z,5.18
2023-03-18T17:02:00.769Z,3.03
2023-03-18T17:04:32.343Z,3.92
2023-03-18T17:07:03.630Z,3.65
2023-03-18T17:09:33.816Z,3.22
2023-03-18T17:12:05.440Z,3.70
2023-03-18T17:14:37.569Z,4.15
2023-03-18T17:17:09.990Z,4.43
2023-03-18T17:19:40.049Z,4.07
2023-03-18T17:22:20.910Z,3.65
2023-03-18T17:24:49.458Z,4.05
2023-03-18T17:27:20.710Z,3.60
2023-03-18T17:29:49.185Z,4.65
2023-03-18T17:32:19.391Z,3.10
2023-03-18T17:34:50.502Z,3.70
2023-03-18T17:37:19.010Z,4.43
2023-03-18T17:39:47.218Z,3.67
2023-03-18T17:42:29.651Z,4.50
2023-03-18T17:45:04.986Z,3.65
2023-03-18T17:47:33.321Z,4.35
2023-03-18T17:50:04.817Z,4.35
2023-03-18T17:52:34.031Z,4.72
2023-03-18T17:55:02.150Z,4.85
2023-03-18T17:57:30.337Z,4.00
2023-03-18T17:59:58.472Z,4.90
2023-03-18T18:02:26.634Z,6.07
2023-03-18T18:04:54.723Z,3.70
2023-03-18T18:07:28.631Z,4.33
2023-03-18T18:09:58.827Z,4.55
2023-03-18T18:12:28.828Z,4.57
2023-03-18T18:14:57.199Z,4.38
2023-03-18T18:17:25.831Z,4.22
2023-03-18T18:19:54.664Z,4.43
2023-03-18T18:22:26.436Z,5.00
2023-03-18T18:24:57.773Z,4.60
2023-03-18T18:27:25.911Z,4.70
2023-03-18T18:29:54.464Z,4.75
2023-03-18T18:32:24.775Z,4.63
2023-03-18T18:34:53.402Z,5.03
2023-03-18T18:37:21.859Z,5.05
2023-03-18T18:39:49.995Z,4.75
2023-03-18T18:42:19.384Z,5.43
2023-03-18T18:44:47.554Z,5.40
2023-03-18T18:47:18.901Z,5.75
2023-03-18T18:49:47.756Z,4.47
2023-03-18T18:52:16.175Z,4.50
2023-03-18T18:54:45.026Z,5.32
2023-03-18T18:57:28.334Z,5.30
2023-03-18T19:02:33.734Z,5.07
2023-03-18T19:05:04.723Z,4.80
2023-03-18T19:07:34.185Z,5.00
2023-03-18T19:10:02.292Z,5.07
2023-03-18T19:12:31.946Z,5.93
2023-03-18T19:15:00.396Z,5.82
2023-03-18T19:17:28.600Z,5.65
2023-03-18T19:19:56.795Z,5.80
2023-03-18T19:22:25.477Z,5.00
2023-03-18T19:24:53.973Z,5.35
2023-03-18T19:27:25.500Z,5.45
2023-03-18T19:29:57.414Z,5.63
2023-03-18T19:32:27.080Z,6.25
2023-03-18T19:34:56.079Z,5.40
2023-03-18T19:37:27.362Z,5.03
2023-03-18T19:39:55.994Z,5.78
2023-03-18T19:42:24.313Z,6.85
2023-03-18T19:44:52.412Z,6.72
2023-03-18T19:47:24.366Z,6.57
2023-03-18T19:49:52.609Z,6.47
2023-03-18T19:52:22.977Z,5.82
2023-03-18T19:54:52.456Z,6.03
2023-03-18T19:57:24.954Z,6.30
2023-03-18T19:59:55.233Z,6.00
2023-03-18T20:02:27.416Z,5.75
2023-03-18T20:04:57.607Z,5.85
2023-03-18T20:07:27.457Z,5.35
2023-03-18T20:09:56.282Z,6.65
2023-03-18T20:12:27.360Z,5.90
2023-03-18T20:14:55.446Z,5.75
2023-03-18T20:17:35.076Z,6.15
2023-03-18T20:20:03.794Z,5.57
2023-03-18T20:22:34.602Z,5.60
2023-03-18T20:25:03.931Z,6.47
2023-03-18T20:27:32.361Z,5.05
2023-03-18T20:30:00.940Z,6.00
2023-03-18T20:32:29.373Z,6.00
2023-03-18T20:34:58.896Z,5.85
2023-03-18T20:37:34.068Z,6.03
2023-03-18T20:40:03.791Z,5.30
2023-03-18T20:42:33.029Z,6.53
2023-03-18T20:45:01.462Z,6.10
2023-03-18T20:47:29.681Z,5.45
2023-03-18T20:49:59.531Z,5.28
2023-03-18T20:52:30.493Z,5.50
2023-03-18T20:54:58.956Z,5.97
2023-03-18T20:57:27.389Z,5.75
2023-03-18T20:59:56.038Z,6.38
2023-03-18T21:02:30.693Z,5.55
2023-03-18T21:05:01.716Z,5.90
2023-03-18T21:07:30.896Z,6.35
2023-03-18T21:09:59.194Z,5.22
2023-03-18T21:12:27.405Z,6.63
2023-03-18T21:14:56.059Z,6.20
2023-03-18T21:17:26.528Z,6.00
2023-03-18T21:20:04.987Z,5.68
2023-03-18T21:22:41.009Z,6.63
2023-03-18T21:25:22.923Z,6.03
2023-03-18T21:27:52.526Z,5.55
2023-03-18T21:30:23.927Z,5.93
2023-03-18T21:32:52.590Z,5.85
2023-03-18T21:35:23.100Z,7.63
2023-03-18T21:37:53.869Z,6.57
2023-03-18T21:40:23.866Z,7.13
2023-03-18T21:42:53.086Z,6.80
2023-03-18T21:45:24.269Z,7.07
2023-03-18T21:47:53.217Z,5.55
2023-03-18T21:50:23.986Z,5.65
2023-03-18T21:52:54.141Z,5.90
2023-03-18T21:55:23.222Z,5.65
2023-03-18T21:57:51.967Z,6.90
2023-03-18T22:00:22.376Z,6.20
2023-03-18T22:02:50.695Z,6.47
2023-03-18T22:05:20.611Z,6.38
2023-03-18T22:07:50.332Z,6.03
2023-03-18T22:10:22.404Z,6.00
2023-03-18T22:12:50.852Z,6.47
2023-03-18T22:15:38.254Z,5.70
2023-03-18T22:18:07.759Z,5.93
2023-03-18T22:20:37.213Z,6.90
2023-03-18T22:23:13.604Z,6.32
2023-03-18T22:25:43.827Z,5.70
2023-03-18T22:28:12.921Z,6.15
2023-03-18T22:30:43.167Z,6.55
2023-03-18T22:33:19.805Z,6.78
2023-03-18T22:35:48.248Z,6.38
2023-03-18T22:38:17.635Z,6.80
2023-03-18T22:40:48.832Z,6.55
2023-03-18T22:43:26.953Z,6.47
2023-03-18T22:45:55.040Z,5.88
2023-03-18T22:48:23.149Z,6.38
2023-03-18T22:50:53.649Z,6.20
2023-03-18T22:53:23.677Z,5.85
2023-03-18T22:55:55.488Z,6.35
2023-03-18T22:58:25.151Z,6.75
2023-03-18T23:00:53.928Z,7.28
2023-03-18T23:03:24.031Z,6.43
2023-03-18T23:05:54.791Z,6.15
2023-03-18T23:08:23.500Z,7.03
2023-03-18T23:10:54.814Z,6.88
2023-03-18T23:13:30.222Z,6.55
2023-03-18T23:15:59.192Z,7.47
2023-03-18T23:18:28.207Z,6.97
2023-03-18T23:20:56.712Z,6.53
2023-03-18T23:23:25.151Z,6.68
2023-03-18T23:25:54.875Z,6.47
2023-03-18T23:28:22.985Z,5.93
2023-03-18T23:30:53.441Z,6.28
2023-03-18T23:33:21.861Z,6.32
2023-03-18T23:35:49.991Z,7.43
2023-03-18T23:38:18.489Z,6.25
2023-03-18T23:40:47.774Z,6.72
2023-03-18T23:43:17.523Z,7.28
2023-03-18T23:45:45.766Z,6.53
2023-03-18T23:48:15.602Z,6.40
2023-03-18T23:50:43.649Z,7.85
2023-03-18T23:53:12.371Z,7.35
2023-03-18T23:55:40.613Z,6.22
2023-03-18T23:58:08.964Z,6.43
